Spanish Springs, Nevada
Current Conditions -  °F | °C
As of 8:15 PM on Friday 19 Dec 2014 (Local Time) from KRTS Reporting Station
Overcast Overcast  
Wind Chill: 35°   Ceiling: 4500
Heat Index: 39°   Visibility: 10mi
Dew Point: 32°   Wind: 6mph
Humidity: 75%   Direction: 130°SE
Pressure: 30.09"   Gusts: NA
Location:  39.6582°N, 119.695°W
Report Text: KRTS 200415Z AUTO 13005KT 10SM FEW039 BKN045 OVC065 04/00 A3009 RMK AO2
Loading
Personal Weather Stations






























Interactive Weather Map New forecast layout! Learn more

10-Day Weather Forecast

Advertisements
Track Severe Weather on mobile